createdAt,value
2023-05-23T00:01:43.214Z,17.00
2023-05-23T00:04:10.823Z,17.00
2023-05-23T00:06:38.766Z,16.90
2023-05-23T00:09:06.072Z,16.90
2023-05-23T00:11:33.114Z,16.90
2023-05-23T00:14:02.364Z,16.90
2023-05-23T00:16:29.867Z,16.90
2023-05-23T00:18:59.100Z,16.80
2023-05-23T00:21:27.368Z,16.80
2023-05-23T00:23:54.401Z,16.80
2023-05-23T00:26:21.860Z,16.80
2023-05-23T00:28:49.151Z,16.80
2023-05-23T00:31:16.227Z,16.80
2023-05-23T00:33:43.321Z,16.80
2023-05-23T00:36:10.386Z,16.80
2023-05-23T00:38:38.138Z,16.70
2023-05-23T00:41:05.744Z,16.70
2023-05-23T00:43:32.762Z,16.70
2023-05-23T00:45:59.932Z,16.70
2023-05-23T00:48:27.014Z,16.70
2023-05-23T00:50:54.188Z,16.70
2023-05-23T00:53:21.408Z,16.70
2023-05-23T00:55:48.424Z,16.70
2023-05-23T00:58:15.884Z,16.70
2023-05-23T01:00:45.006Z,16.70
2023-05-23T01:03:18.134Z,16.70
2023-05-23T01:05:45.917Z,16.80
2023-05-23T01:08:15.510Z,16.70
2023-05-23T01:10:42.640Z,16.70
2023-05-23T01:13:15.796Z,16.70
2023-05-23T01:16:03.155Z,16.70
2023-05-23T01:18:34.560Z,16.70
2023-05-23T01:21:03.727Z,16.70
2023-05-23T01:23:49.589Z,16.70
2023-05-23T01:26:29.501Z,16.70
2023-05-23T01:28:58.244Z,16.70
2023-05-23T01:31:25.567Z,16.70
2023-05-23T01:33:53.382Z,16.70
2023-05-23T01:36:20.544Z,16.70
2023-05-23T01:38:47.615Z,16.60
2023-05-23T01:41:14.635Z,16.60
2023-05-23T01:43:41.673Z,16.60
2023-05-23T01:46:08.798Z,16.60
2023-05-23T01:48:35.831Z,16.60
2023-05-23T01:51:04.368Z,16.60
2023-05-23T01:53:31.422Z,16.60
2023-05-23T01:55:58.602Z,16.50
2023-05-23T01:58:25.928Z,16.50
2023-05-23T02:00:53.084Z,16.50
2023-05-23T02:03:20.313Z,16.50
2023-05-23T02:05:48.936Z,16.50
2023-05-23T02:08:16.011Z,16.50
2023-05-23T02:10:43.099Z,16.50
2023-05-23T02:13:10.358Z,16.40
2023-05-23T02:15:37.430Z,16.40
2023-05-23T02:18:06.459Z,16.40
2023-05-23T02:20:33.578Z,16.40
2023-05-23T02:23:00.857Z,16.40
2023-05-23T02:25:27.909Z,16.40
2023-05-23T02:27:55.003Z,16.40
2023-05-23T02:30:22.125Z,16.40
2023-05-23T02:32:50.050Z,16.40
2023-05-23T02:35:17.188Z,16.30
2023-05-23T02:37:44.257Z,16.30
2023-05-23T02:40:11.427Z,16.30
2023-05-23T02:42:38.444Z,16.20
2023-05-23T02:45:06.044Z,16.20
2023-05-23T02:47:33.173Z,16.20
2023-05-23T02:50:00.738Z,16.20
2023-05-23T02:52:28.529Z,16.10
2023-05-23T02:54:55.704Z,16.10
2023-05-23T02:57:22.800Z,16.10
2023-05-23T02:59:49.880Z,16.00
2023-05-23T03:02:17.104Z,16.00
2023-05-23T03:04:44.380Z,16.00
2023-05-23T03:07:20.594Z,16.00
2023-05-23T03:09:54.511Z,16.00
2023-05-23T03:12:21.663Z,16.00
2023-05-23T03:14:48.683Z,16.00
2023-05-23T03:17:16.136Z,16.00
2023-05-23T03:19:43.206Z,15.90
2023-05-23T03:22:10.465Z,15.90
2023-05-23T03:24:37.501Z,15.90
2023-05-23T03:27:04.835Z,15.80
2023-05-23T03:29:32.719Z,15.80
2023-05-23T03:31:59.809Z,15.80
2023-05-23T03:34:27.209Z,15.80
2023-05-23T03:36:54.214Z,15.80
2023-05-23T03:39:21.304Z,15.80
2023-05-23T03:41:48.438Z,15.70
2023-05-23T03:44:16.338Z,15.70
2023-05-23T03:46:43.529Z,15.60
2023-05-23T03:49:11.289Z,15.60
2023-05-23T03:51:38.454Z,15.60
2023-05-23T03:54:05.573Z,15.60
2023-05-23T03:56:32.920Z,15.60
2023-05-23T03:59:00.036Z,15.60
2023-05-23T04:01:27.740Z,15.60
2023-05-23T04:03:55.152Z,15.60
2023-05-23T04:06:24.486Z,15.60
2023-05-23T04:08:51.623Z,15.50
2023-05-23T04:11:19.018Z,15.60
2023-05-23T04:13:46.983Z,15.60
2023-05-23T04:16:14.044Z,15.50
2023-05-23T04:18:41.649Z,15.50
2023-05-23T04:21:08.766Z,15.50
2023-05-23T04:23:43.572Z,15.60
2023-05-23T04:26:11.576Z,15.50
2023-05-23T04:28:46.261Z,15.50
2023-05-23T04:31:13.728Z,15.50
2023-05-23T04:33:41.240Z,15.50
2023-05-23T04:36:09.343Z,15.50
2023-05-23T04:38:41.960Z,15.50
2023-05-23T04:41:10.296Z,15.60
2023-05-23T04:43:54.288Z,15.60
2023-05-23T04:46:47.873Z,15.60
2023-05-23T04:49:21.388Z,15.60
2023-05-23T04:51:48.650Z,15.60
2023-05-23T04:54:27.505Z,15.60
2023-05-23T04:56:58.559Z,15.60
2023-05-23T04:59:28.096Z,15.60
2023-05-23T05:01:55.217Z,15.70
2023-05-23T05:04:23.646Z,15.70
2023-05-23T05:06:52.419Z,15.70
2023-05-23T05:09:19.648Z,15.80
2023-05-23T05:11:47.095Z,15.80
2023-05-23T05:14:15.273Z,15.80
2023-05-23T05:16:42.783Z,15.90
2023-05-23T05:19:10.036Z,15.90
2023-05-23T05:21:37.208Z,16.00
2023-05-23T05:24:04.445Z,16.00
2023-05-23T05:26:31.983Z,16.00
2023-05-23T05:28:59.092Z,16.00
2023-05-23T05:31:27.573Z,16.00
2023-05-23T05:33:54.708Z,16.10
2023-05-23T05:36:21.776Z,16.20
2023-05-23T05:38:50.086Z,16.20
2023-05-23T05:41:19.766Z,16.30
2023-05-23T05:43:49.800Z,16.40
2023-05-23T05:46:21.198Z,16.30
2023-05-23T05:48:48.892Z,16.40
2023-05-23T05:51:18.045Z,16.40
2023-05-23T05:53:45.372Z,16.50
2023-05-23T05:56:12.637Z,16.50
2023-05-23T05:58:39.751Z,16.50
2023-05-23T06:01:09.306Z,16.50
2023-05-23T06:03:36.479Z,16.50
2023-05-23T06:06:03.656Z,16.50
2023-05-23T06:08:30.842Z,16.60
2023-05-23T06:10:57.973Z,16.70
2023-05-23T06:13:28.196Z,16.70
2023-05-23T06:15:56.578Z,16.80
2023-05-23T06:18:24.096Z,16.90
2023-05-23T06:20:52.116Z,16.90
2023-05-23T06:23:21.199Z,16.90
2023-05-23T06:25:48.582Z,17.00
2023-05-23T06:28:15.714Z,17.00
2023-05-23T06:30:43.018Z,17.00
2023-05-23T06:33:11.927Z,17.00
2023-05-23T06:35:39.048Z,17.10
2023-05-23T06:38:06.070Z,17.20
2023-05-23T06:40:33.693Z,17.20
2023-05-23T06:43:00.782Z,17.20
2023-05-23T06:45:51.574Z,17.30
2023-05-23T06:48:21.028Z,17.40
2023-05-23T06:50:49.089Z,17.40
2023-05-23T06:53:19.428Z,17.40
2023-05-23T06:55:48.012Z,17.40
2023-05-23T06:58:18.105Z,17.40
2023-05-23T07:00:45.179Z,17.40
2023-05-23T07:03:21.017Z,17.50
2023-05-23T07:05:49.322Z,17.50
2023-05-23T07:08:17.966Z,17.60
2023-05-23T07:10:56.725Z,17.70
2023-05-23T07:13:33.715Z,17.80
2023-05-23T07:16:00.857Z,17.80
2023-05-23T07:18:28.194Z,17.80
2023-05-23T07:20:57.271Z,17.80
2023-05-23T07:23:24.691Z,17.80
2023-05-23T07:26:01.855Z,17.80
2023-05-23T07:28:49.099Z,17.80
2023-05-23T07:31:16.187Z,17.70
2023-05-23T07:33:43.982Z,17.70
2023-05-23T07:36:16.389Z,17.60
2023-05-23T07:38:43.737Z,17.70
2023-05-23T07:41:12.397Z,17.70
2023-05-23T07:43:41.007Z,17.70
2023-05-23T07:46:08.479Z,17.70
2023-05-23T07:48:35.804Z,17.70
2023-05-23T07:51:03.892Z,17.60
2023-05-23T07:53:31.079Z,17.60
2023-05-23T07:55:58.702Z,17.60
2023-05-23T07:58:29.135Z,17.50
2023-05-23T08:00:57.902Z,17.60
2023-05-23T08:03:44.855Z,17.60
2023-05-23T08:06:18.712Z,17.50
2023-05-23T08:08:45.984Z,17.50
2023-05-23T08:11:14.916Z,17.50
2023-05-23T08:13:46.721Z,17.50
2023-05-23T08:16:32.532Z,17.50
2023-05-23T08:19:00.601Z,17.50
2023-05-23T08:21:28.342Z,17.50
2023-05-23T08:23:55.384Z,17.50
2023-05-23T08:26:22.956Z,17.50
2023-05-23T08:28:51.180Z,17.50
2023-05-23T08:31:18.556Z,17.50
2023-05-23T08:33:46.224Z,17.40
2023-05-23T08:36:13.898Z,17.40
2023-05-23T08:38:41.762Z,17.50
2023-05-23T08:41:16.368Z,17.50
2023-05-23T08:43:43.519Z,17.50
2023-05-23T08:46:13.844Z,17.50
2023-05-23T08:48:41.825Z,17.60
2023-05-23T08:51:09.611Z,17.60
2023-05-23T08:53:37.519Z,17.60
2023-05-23T08:56:06.864Z,17.60
2023-05-23T08:58:44.660Z,17.60
2023-05-23T09:01:12.146Z,17.60
2023-05-23T09:03:40.165Z,17.60
2023-05-23T09:06:21.278Z,17.60
2023-05-23T09:08:48.791Z,17.70
2023-05-23T09:11:18.034Z,17.70
2023-05-23T09:13:45.814Z,17.80
2023-05-23T09:16:17.724Z,17.80
2023-05-23T09:18:56.691Z,17.80
2023-05-23T09:21:25.784Z,17.80
2023-05-23T09:24:01.986Z,17.80
2023-05-23T09:26:29.095Z,17.80
2023-05-23T09:28:59.679Z,17.80
2023-05-23T09:31:26.872Z,17.80
2023-05-23T09:33:53.942Z,17.80
2023-05-23T09:36:21.255Z,17.80
2023-05-23T09:38:52.468Z,17.90
2023-05-23T09:41:19.900Z,17.90
2023-05-23T09:43:53.035Z,17.90
2023-05-23T09:46:20.867Z,17.90
2023-05-23T09:48:48.330Z,17.90
2023-05-23T09:51:15.501Z,17.90
2023-05-23T09:53:42.907Z,17.90
2023-05-23T09:56:11.481Z,17.80
2023-05-23T09:58:38.689Z,17.90
2023-05-23T10:01:07.261Z,17.80
2023-05-23T10:03:35.830Z,17.80
2023-05-23T10:06:36.397Z,17.80
2023-05-23T10:09:06.510Z,17.80
2023-05-23T10:11:36.029Z,17.80
2023-05-23T10:14:12.280Z,17.80
2023-05-23T10:16:58.269Z,17.80
2023-05-23T10:19:26.890Z,17.80
2023-05-23T10:21:59.477Z,17.80
2023-05-23T10:24:27.818Z,17.80
2023-05-23T10:26:55.614Z,17.80
2023-05-23T10:29:22.945Z,17.90
2023-05-23T10:31:50.923Z,17.90
2023-05-23T10:34:28.329Z,18.00
2023-05-23T10:37:07.876Z,18.00
2023-05-23T10:39:53.870Z,18.10
2023-05-23T10:42:24.671Z,18.00
2023-05-23T10:44:51.763Z,18.00
2023-05-23T10:47:31.024Z,18.10
2023-05-23T10:49:58.113Z,18.10
2023-05-23T10:52:28.227Z,18.10
2023-05-23T10:54:56.152Z,18.20
2023-05-23T10:57:26.802Z,18.50
2023-05-23T10:59:53.821Z,18.60
2023-05-23T11:02:37.661Z,18.70
2023-05-23T11:05:23.759Z,18.70
2023-05-23T11:08:06.256Z,18.80
2023-05-23T11:10:33.281Z,18.80
2023-05-23T11:13:12.791Z,19.00
2023-05-23T11:15:44.970Z,19.10
2023-05-23T11:18:22.224Z,19.20
2023-05-23T11:20:54.277Z,19.20
2023-05-23T11:23:22.022Z,19.30
2023-05-23T11:25:50.581Z,19.40
2023-05-23T11:28:17.939Z,19.40
2023-05-23T11:30:47.309Z,19.40
2023-05-23T11:33:14.609Z,19.40
2023-05-23T11:35:42.002Z,19.40
2023-05-23T11:38:09.199Z,19.50
2023-05-23T11:40:40.220Z,19.50
2023-05-23T11:43:08.922Z,19.60
2023-05-23T11:45:36.652Z,19.60
2023-05-23T11:48:07.070Z,19.70
2023-05-23T11:50:34.872Z,19.70
2023-05-23T11:53:01.951Z,19.60
2023-05-23T11:55:28.995Z,19.60
2023-05-23T11:57:56.206Z,19.50
2023-05-23T12:00:23.369Z,19.50
2023-05-23T12:02:50.677Z,19.60
2023-05-23T12:05:17.917Z,19.50
2023-05-23T12:07:46.438Z,19.50
2023-05-23T12:10:17.156Z,19.50
2023-05-23T12:12:44.891Z,19.40
2023-05-23T12:15:12.358Z,19.50
2023-05-23T12:17:42.603Z,19.50
2023-05-23T12:20:10.663Z,19.70
2023-05-23T12:22:38.222Z,19.90
2023-05-23T12:25:08.281Z,20.00
2023-05-23T12:27:35.576Z,20.20
2023-05-23T12:30:13.849Z,20.40
2023-05-23T12:32:41.470Z,20.40
2023-05-23T12:35:09.260Z,20.40
2023-05-23T12:37:45.891Z,20.30
2023-05-23T12:40:16.685Z,20.40
2023-05-23T12:42:49.396Z,20.30
2023-05-23T12:45:16.557Z,20.30
2023-05-23T12:47:43.759Z,20.40
2023-05-23T12:50:12.124Z,20.50
2023-05-23T12:52:40.126Z,20.60
2023-05-23T12:55:07.889Z,20.60
2023-05-23T12:57:35.338Z,20.50
2023-05-23T13:00:02.504Z,20.50
2023-05-23T13:02:29.579Z,20.60
2023-05-23T13:04:56.668Z,20.60
2023-05-23T13:07:23.892Z,20.60
2023-05-23T13:09:51.159Z,20.50
2023-05-23T13:12:18.294Z,20.40
2023-05-23T13:14:45.468Z,20.40
2023-05-23T13:17:12.636Z,20.40
2023-05-23T13:19:39.881Z,20.50
2023-05-23T13:22:10.265Z,20.60
2023-05-23T13:24:37.983Z,20.70
2023-05-23T13:27:05.746Z,20.70
2023-05-23T13:29:33.031Z,20.70
2023-05-23T13:32:00.315Z,20.80
2023-05-23T13:34:28.547Z,20.70
2023-05-23T13:36:55.867Z,20.70
2023-05-23T13:39:23.382Z,20.70
2023-05-23T13:41:50.616Z,20.80
2023-05-23T13:44:17.948Z,20.90
2023-05-23T13:46:45.099Z,21.00
2023-05-23T13:49:12.401Z,21.00
2023-05-23T13:51:39.984Z,21.00
2023-05-23T13:54:07.161Z,21.00
2023-05-23T13:56:34.250Z,21.00
2023-05-23T13:59:01.254Z,20.90
2023-05-23T14:01:28.596Z,20.80
2023-05-23T14:03:56.078Z,20.70
2023-05-23T14:06:23.108Z,20.60
2023-05-23T14:08:50.286Z,20.60
2023-05-23T14:11:17.300Z,20.70
2023-05-23T14:13:44.356Z,20.80
2023-05-23T14:16:11.488Z,20.80
2023-05-23T14:18:38.651Z,20.80
2023-05-23T14:21:06.126Z,20.80
2023-05-23T14:23:33.278Z,20.80
2023-05-23T14:26:00.305Z,20.80
2023-05-23T14:28:27.445Z,20.70
2023-05-23T14:30:59.894Z,20.70
2023-05-23T14:33:27.127Z,20.60
2023-05-23T14:35:54.198Z,20.50
2023-05-23T14:38:21.319Z,20.40
2023-05-23T14:40:48.862Z,20.30
2023-05-23T14:43:15.927Z,20.20
2023-05-23T14:45:43.808Z,20.20
2023-05-23T14:48:11.531Z,20.20
2023-05-23T14:50:38.711Z,20.30
2023-05-23T14:53:05.762Z,20.30
2023-05-23T14:55:32.891Z,20.30
2023-05-23T14:58:00.016Z,20.30
2023-05-23T15:00:27.471Z,20.10
2023-05-23T15:02:54.699Z,20.00
2023-05-23T15:05:21.958Z,20.00
2023-05-23T15:07:49.027Z,19.90
2023-05-23T15:10:16.226Z,19.90
2023-05-23T15:12:43.576Z,19.80
2023-05-23T15:15:10.883Z,19.80
2023-05-23T15:17:38.090Z,19.80
2023-05-23T15:20:07.224Z,19.70
2023-05-23T15:22:39.343Z,19.70
2023-05-23T15:25:07.398Z,19.60
2023-05-23T15:27:34.428Z,19.60
2023-05-23T15:30:01.867Z,19.50
2023-05-23T15:32:29.059Z,19.50
2023-05-23T15:34:56.190Z,19.50
2023-05-23T15:37:23.207Z,19.50
2023-05-23T15:39:50.294Z,19.50
2023-05-23T15:42:17.349Z,19.40
2023-05-23T15:44:44.405Z,19.40
2023-05-23T15:47:11.637Z,19.40
2023-05-23T15:49:38.665Z,19.40
2023-05-23T15:52:05.686Z,19.30
2023-05-23T15:54:32.722Z,19.30
2023-05-23T15:56:59.741Z,19.30
2023-05-23T15:59:26.761Z,19.30
2023-05-23T16:01:53.904Z,19.30
2023-05-23T16:04:21.085Z,19.20
2023-05-23T16:06:48.358Z,19.20
2023-05-23T16:09:15.759Z,19.10
2023-05-23T16:11:42.817Z,19.10
2023-05-23T16:14:09.896Z,19.10
2023-05-23T16:16:37.035Z,19.10
2023-05-23T16:19:04.856Z,19.00
2023-05-23T16:21:32.172Z,19.00
2023-05-23T16:23:59.218Z,18.90
2023-05-23T16:26:27.028Z,18.90
2023-05-23T16:28:54.451Z,18.90
2023-05-23T16:31:25.395Z,18.80
2023-05-23T16:33:52.440Z,18.80
2023-05-23T16:36:19.509Z,18.80
2023-05-23T16:38:46.529Z,18.80
2023-05-23T16:41:13.549Z,18.70
2023-05-23T16:43:40.553Z,18.70
2023-05-23T16:46:07.928Z,18.70
2023-05-23T16:48:34.991Z,18.70
2023-05-23T16:51:02.123Z,18.60
2023-05-23T16:53:29.150Z,18.50
2023-05-23T16:55:56.167Z,18.50
2023-05-23T16:58:23.181Z,18.50
2023-05-23T17:00:50.572Z,18.40
2023-05-23T17:03:17.691Z,18.40
2023-05-23T17:05:45.110Z,18.40
2023-05-23T17:08:12.415Z,18.40
2023-05-23T17:10:39.608Z,18.30
2023-05-23T17:13:06.791Z,18.30
2023-05-23T17:15:33.866Z,18.30
2023-05-23T17:18:01.053Z,18.20
2023-05-23T17:20:28.171Z,18.20
2023-05-23T17:22:55.800Z,18.20
2023-05-23T17:25:22.900Z,18.20
2023-05-23T17:27:49.980Z,18.10
2023-05-23T17:30:20.201Z,18.10
2023-05-23T17:32:47.370Z,18.10
2023-05-23T17:35:14.451Z,18.00
2023-05-23T17:37:43.436Z,17.90
2023-05-23T17:40:11.396Z,17.90
2023-05-23T17:42:41.707Z,17.80
2023-05-23T17:45:09.512Z,17.80
2023-05-23T17:47:36.653Z,17.70
2023-05-23T17:50:04.480Z,17.70
2023-05-23T17:52:31.738Z,17.60
2023-05-23T17:54:58.750Z,17.60
2023-05-23T17:57:26.790Z,17.70
2023-05-23T17:59:54.106Z,17.60
2023-05-23T18:02:21.133Z,17.50
2023-05-23T18:04:48.194Z,17.50
2023-05-23T18:07:18.523Z,17.50
2023-05-23T18:09:46.379Z,17.50
2023-05-23T18:12:13.569Z,17.40
2023-05-23T18:14:41.235Z,17.40
2023-05-23T18:17:09.657Z,17.40
2023-05-23T18:19:36.877Z,17.40
2023-05-23T18:22:04.082Z,17.40
2023-05-23T18:24:31.095Z,17.40
2023-05-23T18:26:58.369Z,17.40
2023-05-23T18:29:26.130Z,17.30
2023-05-23T18:31:53.175Z,17.30
2023-05-23T18:34:20.929Z,17.30
2023-05-23T18:36:48.007Z,17.30
2023-05-23T18:39:15.457Z,17.30
2023-05-23T18:41:42.599Z,17.30
2023-05-23T18:44:09.624Z,17.20
2023-05-23T18:46:36.825Z,17.20
2023-05-23T18:49:04.839Z,17.20
2023-05-23T18:51:32.359Z,17.20
2023-05-23T18:53:59.511Z,17.10
2023-05-23T18:56:26.905Z,17.10
2023-05-23T18:58:53.928Z,17.10
2023-05-23T19:01:21.574Z,17.10
2023-05-23T19:03:48.863Z,17.10
2023-05-23T19:06:16.465Z,17.10
2023-05-23T19:08:43.485Z,17.10
2023-05-23T19:11:14.623Z,17.00
2023-05-23T19:13:41.647Z,17.00
2023-05-23T19:16:08.789Z,16.90
2023-05-23T19:18:35.976Z,17.00
2023-05-23T19:21:03.110Z,16.90
2023-05-23T19:23:30.154Z,16.90
2023-05-23T19:25:57.185Z,16.90
2023-05-23T19:28:24.217Z,16.90
2023-05-23T19:30:51.871Z,16.90
2023-05-23T19:33:18.898Z,16.90
2023-05-23T19:35:45.918Z,16.80
2023-05-23T19:38:12.929Z,16.80
2023-05-23T19:40:40.207Z,16.80
2023-05-23T19:43:07.346Z,16.80
2023-05-23T19:45:35.067Z,16.70
2023-05-23T19:48:02.164Z,16.70
2023-05-23T19:50:29.342Z,16.70
2023-05-23T19:52:56.370Z,16.70
2023-05-23T19:55:23.674Z,16.60
2023-05-23T19:57:50.740Z,16.60
2023-05-23T20:00:18.224Z,16.60
2023-05-23T20:02:45.356Z,16.50
2023-05-23T20:05:12.448Z,16.50
2023-05-23T20:07:39.901Z,16.40
2023-05-23T20:10:07.312Z,16.30
2023-05-23T20:12:34.651Z,16.30
2023-05-23T20:15:02.138Z,16.30
2023-05-23T20:17:29.934Z,16.30
2023-05-23T20:19:57.083Z,16.30
2023-05-23T20:22:24.108Z,16.30
2023-05-23T20:24:51.176Z,16.30
2023-05-23T20:27:18.211Z,16.20
2023-05-23T20:29:45.320Z,16.20
2023-05-23T20:32:12.460Z,16.20
2023-05-23T20:34:39.907Z,16.20
2023-05-23T20:37:06.991Z,16.20
2023-05-23T20:39:34.821Z,16.10
2023-05-23T20:42:01.988Z,16.20
2023-05-23T20:44:29.004Z,16.10
2023-05-23T20:46:56.903Z,16.10
2023-05-23T20:49:24.804Z,16.10
2023-05-23T20:51:51.886Z,16.00
2023-05-23T20:54:19.009Z,16.00
2023-05-23T20:56:46.294Z,16.00
2023-05-23T20:59:13.376Z,16.00
2023-05-23T21:01:40.568Z,16.00
2023-05-23T21:04:07.866Z,16.00
2023-05-23T21:06:34.913Z,15.90
2023-05-23T21:09:01.943Z,15.90
2023-05-23T21:11:28.989Z,15.80
2023-05-23T21:13:57.288Z,15.80
2023-05-23T21:16:24.463Z,15.80
2023-05-23T21:18:51.579Z,15.80
2023-05-23T21:21:18.662Z,15.80
2023-05-23T21:23:46.081Z,15.70
2023-05-23T21:26:13.095Z,15.70
2023-05-23T21:28:40.189Z,15.60
2023-05-23T21:31:07.761Z,15.60
2023-05-23T21:33:34.907Z,15.60
2023-05-23T21:36:02.008Z,15.50
2023-05-23T21:38:30.162Z,15.50
2023-05-23T21:40:57.183Z,15.50
2023-05-23T21:43:24.218Z,15.50
2023-05-23T21:45:51.249Z,15.50
2023-05-23T21:48:18.379Z,15.40
2023-05-23T21:50:45.444Z,15.40
2023-05-23T21:53:12.452Z,15.30
2023-05-23T21:55:39.472Z,15.30
2023-05-23T21:58:06.485Z,15.30
2023-05-23T22:00:33.541Z,15.20
2023-05-23T22:03:00.693Z,15.20
2023-05-23T22:05:27.757Z,15.20
2023-05-23T22:07:54.767Z,15.10
2023-05-23T22:10:21.855Z,15.10
2023-05-23T22:12:48.932Z,15.00
2023-05-23T22:15:16.046Z,15.00
2023-05-23T22:17:43.279Z,15.00
2023-05-23T22:20:13.000Z,15.00
2023-05-23T22:22:40.564Z,15.00
2023-05-23T22:25:08.147Z,15.00
2023-05-23T22:27:35.277Z,15.00
2023-05-23T22:30:02.389Z,15.00
2023-05-23T22:32:29.462Z,14.90
2023-05-23T22:34:56.579Z,14.90
2023-05-23T22:37:23.579Z,14.90
2023-05-23T22:39:50.711Z,14.90
2023-05-23T22:42:17.728Z,14.80
2023-05-23T22:44:44.819Z,14.80
2023-05-23T22:47:13.610Z,14.80
2023-05-23T22:49:42.348Z,14.80
2023-05-23T22:52:09.513Z,14.80
2023-05-23T22:54:36.534Z,14.80
2023-05-23T22:57:03.649Z,14.70
2023-05-23T22:59:31.038Z,14.70
2023-05-23T23:01:58.165Z,14.70
2023-05-23T23:04:25.440Z,14.60
2023-05-23T23:06:53.574Z,14.60
2023-05-23T23:09:21.153Z,14.60
2023-05-23T23:11:48.320Z,14.60
2023-05-23T23:14:15.769Z,14.60
2023-05-23T23:16:43.134Z,14.60
2023-05-23T23:19:10.268Z,14.60
2023-05-23T23:21:37.763Z,14.50
2023-05-23T23:24:05.524Z,14.50
2023-05-23T23:26:32.537Z,14.50
2023-05-23T23:28:59.533Z,14.40
2023-05-23T23:31:26.587Z,14.40
2023-05-23T23:33:53.665Z,14.40
2023-05-23T23:36:20.852Z,14.30
2023-05-23T23:38:47.916Z,14.30
2023-05-23T23:41:14.912Z,14.20
2023-05-23T23:43:41.935Z,14.20
2023-05-23T23:46:09.016Z,14.20
2023-05-23T23:48:36.064Z,14.10
2023-05-23T23:51:03.154Z,14.10
2023-05-23T23:53:31.653Z,14.00
2023-05-23T23:55:58.693Z,14.00
2023-05-23T23:58:25.705Z,14.00
